• Join FlightAware (Why Join?)
  • Login
  • US Flag 
09:09PM EST


 

Airport Tracker/Info


-or-


 

Live Flight TrackerFlight Track Log ✈ UPS2506 ✈ 10-Jun-2014 ✈ KDSM - KMHR

Flight Track Log - Related Links

Times and Time Zones

All times are in EDT time to prevent confusion due to time zone crossing. See the UPS2506 flight status page for this flight to view local times or setup timezone preferences in your user account.

Time Position Orientation Groundspeed Altitude Reporting Facility
EDT Latitude Longitude Course Direction KTS MPH feet Rate Location/Type
04:12PM 41.5300 -93.6336 163° South 172 198 2,100  Level Minneapolis Center
04:13PM 41.4864 -93.6158 163° South 194 223 3,700 1,800 Climbing Minneapolis Center
04:14PM 41.4542 -93.6928 241° Southwest 274 315 5,500 2,220 Climbing Minneapolis Center
04:19PM 41.4507 -94.4401 267° West 431 496 18,300 2,280 Climbing FlightAware ADS-B
04:20PM 41.4472 -94.5211 267° West 439 505 19,200 1,740 Climbing FlightAware ADS-B
04:20PM 41.4458 -94.5522 267° West 442 509 19,700 1,980 Climbing FlightAware ADS-B
04:20PM 41.4435 -94.6028 267° West 443 510 20,200 2,160 Climbing FlightAware ADS-B
04:21PM 41.4398 -94.6847 267° West 445 512 21,300 1,800 Climbing FlightAware ADS-B
04:22PM 41.4345 -94.8025 267° West 449 517 22,400 1,560 Climbing FlightAware ADS-B
04:23PM 41.4269 -94.9654 266° West 464 534 23,900 1,560 Climbing FlightAware ADS-B
04:23PM 41.4228 -95.0515 266° West 468 539 24,700 1,440 Climbing FlightAware ADS-B
04:24PM 41.4186 -95.1400 266° West 473 544 25,400 1,320 Climbing FlightAware ADS-B
04:24PM 41.4119 -95.2762 266° West 482 555 26,400 1,380 Climbing FlightAware ADS-B
04:25PM 41.4072 -95.3681 266° West 481 554 27,200 1,800 Climbing FlightAware ADS-B
04:25PM 41.4025 -95.4593 266° West 473 544 28,300 1,860 Climbing FlightAware ADS-B
04:26PM 41.3978 -95.5508 266° West 468 539 29,200 1,740 Climbing FlightAware ADS-B
04:26PM 41.3932 -95.6371 266° West 464 534 30,100 1,560 Climbing FlightAware ADS-B
04:27PM 41.3886 -95.7234 266° West 461 531 30,800 1,320 Climbing FlightAware ADS-B
04:27PM 41.3841 -95.8078 266° West 457 526 31,500 1,140 Climbing FlightAware ADS-B
04:28PM 41.3792 -95.8962 266° West 458 527 32,000 420 Climbing FlightAware ADS-B
04:28PM 41.3743 -95.9833 266° West 458 527 32,000  Level FlightAware ADS-B
04:29PM 41.3694 -96.0689 266° West 456 525 32,000  Level FlightAware ADS-B
04:29PM 41.3644 -96.1557 266° West 455 524 32,000  Level FlightAware ADS-B
04:30PM 41.3594 -96.2416 266° West 459 528 32,000  Level FlightAware ADS-B
04:30PM 41.3541 -96.3316 266° West 461 531 32,000  Level FlightAware ADS-B
04:31PM 41.3490 -96.4173 265° West 463 533 32,000  Level FlightAware ADS-B
04:32PM 41.3438 -96.5037 265° West 466 536 32,000  Level FlightAware ADS-B
04:32PM 41.3384 -96.5940 265° West 467 537 32,000  Level FlightAware ADS-B
04:33PM 41.3331 -96.6799 265° West 468 539 32,000  Level FlightAware ADS-B
04:33PM 41.3275 -96.7681 265° West 467 537 32,000  Level FlightAware ADS-B
04:34PM 41.3220 -96.8544 265° West 468 539 32,000  Level FlightAware ADS-B
04:34PM 41.3164 -96.9425 265° West 467 537 32,000  Level FlightAware ADS-B
04:35PM 41.3107 -97.0298 265° West 466 536 32,000  Level FlightAware ADS-B
04:35PM 41.3050 -97.1166 265° West 463 533 32,000  Level FlightAware ADS-B
04:36PM 41.2988 -97.2083 265° West 461 531 32,000  Level FlightAware ADS-B
04:36PM 41.2931 -97.2939 265° West 461 531 32,000  Level FlightAware ADS-B
04:37PM 41.2874 -97.3792 265° West 464 534 32,000  Level FlightAware ADS-B
04:37PM 41.2812 -97.4703 265° West 463 533 32,000  Level FlightAware ADS-B
04:38PM 41.2751 -97.5573 265° West 460 529 32,000  Level FlightAware ADS-B
04:38PM 41.2691 -97.6417 265° West 460 529 32,000  Level FlightAware ADS-B
04:39PM 41.2630 -97.7281 265° West 459 528 32,000  Level FlightAware ADS-B
04:39PM 41.2570 -97.8126 265° West 457 526 32,000  Level FlightAware ADS-B
04:40PM 41.2508 -97.8975 264° West 457 526 32,000  Level FlightAware ADS-B
04:40PM 41.2444 -97.9844 264° West 457 526 32,000  Level FlightAware ADS-B
04:41PM 41.2381 -98.0695 264° West 458 527 32,000  Level FlightAware ADS-B
04:42PM 41.2285 -98.1974 264° West 458 527 32,000  Level FlightAware ADS-B
04:42PM 41.2219 -98.2839 264° West 458 527 32,000  Level FlightAware ADS-B
04:43PM 41.2154 -98.3680 264° West 458 527 32,000  Level FlightAware ADS-B
04:43PM 41.2090 -98.4520 264° West 458 527 32,000  Level FlightAware ADS-B
04:44PM 41.2021 -98.5413 264° West 457 526 32,000  Level FlightAware ADS-B
04:44PM 41.1919 -98.6697 264° West 458 527 32,000  Level FlightAware ADS-B
04:45PM 41.1850 -98.7553 264° West 457 526 32,000  Level FlightAware ADS-B
04:45PM 41.1780 -98.8416 264° West 457 526 32,000  Level FlightAware ADS-B
04:46PM 41.1710 -98.9273 264° West 456 525 32,000  Level FlightAware ADS-B
04:46PM 41.1638 -99.0151 264° West 456 525 32,000  Level FlightAware ADS-B
04:47PM 41.1568 -99.0994 264° West 455 524 32,000  Level FlightAware ADS-B
04:47PM 41.1493 -99.1888 264° West 454 522 32,000  Level FlightAware ADS-B
04:48PM 41.1418 -99.2772 264° West 454 522 32,000  Level FlightAware ADS-B
04:48PM 41.1346 -99.3620 263° West 455 524 32,000  Level FlightAware ADS-B
04:49PM 41.1274 -99.4454 263° West 456 525 32,000  Level FlightAware ADS-B
04:50PM 41.1200 -99.5301 263° West 455 524 32,000  Level FlightAware ADS-B
04:50PM 41.1121 -99.6202 263° West 453 521 32,000  Level FlightAware ADS-B
04:51PM 41.1056 -99.6981 263° West 455 524 32,000  Level Denver Center
04:52PM 41.0914 -99.8564 263° West 455 524 32,000  Level Denver Center
04:53PM 41.0742 -100.0408 263° West 454 522 32,000  Level Denver Center
04:54PM 41.0597 -100.1986 263° West 454 522 32,000  Level Denver Center
04:59PM 40.9685 -101.1340 262° West 452 520 32,000  Level FlightAware ADS-B (KEIK)
05:00PM 40.9561 -101.2547 262° West 449 517 32,000  Level FlightAware ADS-B (KEIK)
05:01PM 40.9450 -101.3621 262° West 447 514 32,000  Level FlightAware ADS-B (KEIK)
05:01PM 40.9349 -101.4597 262° West 444 511 32,000  Level FlightAware ADS-B (KEIK)
05:02PM 40.9254 -101.5498 262° West 442 509 32,000  Level FlightAware ADS-B (KEIK)
05:03PM 40.9128 -101.6678 262° West 441 507 32,000  Level FlightAware ADS-B (KEIK)
05:03PM 40.9030 -101.7601 262° West 442 509 32,000  Level FlightAware ADS-B (KEIK)
05:04PM 40.8938 -101.8457 262° West 445 512 32,000  Level FlightAware ADS-B (KEIK)
05:04PM 40.8825 -101.9496 262° West 445 512 32,000  Level FlightAware ADS-B (KEIK)
05:05PM 40.8670 -102.0911 262° West 444 511 32,000  Level FlightAware ADS-B (KEIK)
05:06PM 40.8546 -102.2030 262° West 444 511 32,000  Level FlightAware ADS-B (KEIK)
05:07PM 40.8424 -102.3117 262° West 445 512 32,000  Level FlightAware ADS-B (KEIK)
05:07PM 40.8330 -102.3958 262° West 445 512 32,000  Level FlightAware ADS-B (KEIK)
05:08PM 40.8220 -102.4924 261° West 442 509 32,000  Level FlightAware ADS-B (KEIK)
05:09PM 40.8018 -102.6676 261° West 443 510 32,000  Level FlightAware ADS-B (KEIK)
05:09PM 40.7898 -102.7712 261° West 444 511 32,000  Level FlightAware ADS-B (KEIK)
05:10PM 40.7836 -102.8239 261° West 445 512 32,000  Level FlightAware ADS-B (KEIK)
05:10PM 40.7697 -102.9442 261° West 445 512 32,000  Level FlightAware ADS-B (KEIK)
05:11PM 40.7596 -103.0295 261° West 448 516 32,000  Level FlightAware ADS-B (KBJC)
05:12PM 40.7452 -103.1496 261° West 446 513 32,000  Level FlightAware ADS-B (KEIK)
05:12PM 40.7340 -103.2412 261° West 447 514 32,000  Level FlightAware ADS-B (KEIK)
05:13PM 40.7250 -103.3152 261° West 446 513 32,000  Level FlightAware ADS-B (KEIK)
05:13PM 40.7137 -103.4080 261° West 440 506 32,000  Level FlightAware ADS-B (KEIK)
05:14PM 40.7017 -103.5065 261° West 437 503 32,000  Level FlightAware ADS-B (KBJC)
05:15PM 40.6909 -103.5938 261° West 432 497 32,000  Level FlightAware ADS-B (KEIK)
05:15PM 40.6813 -103.6720 261° West 432 497 32,000  Level FlightAware ADS-B (KEIK)
05:16PM 40.6702 -103.7609 261° West 429 494 32,000  Level FlightAware ADS-B (KEIK)
05:16PM 40.6613 -103.8312 261° West 430 495 32,000  Level FlightAware ADS-B (KEIK)
05:17PM 40.6493 -103.9255 261° West 434 499 32,000  Level FlightAware ADS-B (KBJC)
05:18PM 40.6336 -104.0485 260° West 432 497 32,000  Level FlightAware ADS-B (KEIK)
05:18PM 40.6225 -104.1342 260° West 429 494 32,000 240 Level FlightAware ADS-B (KEIK)
05:19PM 40.6158 -104.2096 272° West 430 495 32,300 780 Climbing FlightAware ADS-B (KANK)
05:19PM 40.6190 -104.3128 273° West 434 499 32,900 840 Climbing FlightAware ADS-B (KBJC)
05:20PM 40.6224 -104.4124 272° West 437 503 33,400 780 Climbing FlightAware ADS-B (KANK)
05:20PM 40.6247 -104.4963 272° West 440 506 33,800 540 Climbing FlightAware ADS-B (KANK)
05:21PM 40.6276 -104.5794 273° West 444 511 34,000 180 Climbing FlightAware ADS-B (KANK)
05:21PM 40.6303 -104.6664 272° West 436 502 34,000  Level FlightAware ADS-B (KEIK)
05:22PM 40.6327 -104.7418 272° West 427 491 34,000  Level FlightAware ADS-B (KANK)
05:22PM 40.6357 -104.8265 273° West 421 484 34,000  Level FlightAware ADS-B (KEIK)
05:23PM 40.6379 -104.9185 269° West 425 489 34,000  Level FlightAware ADS-B (KEIK)
05:24PM 40.6350 -105.0305 268° West 424 488 34,000  Level FlightAware ADS-B (KEIK)
05:24PM 40.6314 -105.1360 264° West 426 490 34,000  Level FlightAware ADS-B (KEIK)
05:25PM 40.6143 -105.2604 259° West 428 493 34,000  Level FlightAware ADS-B (KANK)
05:26PM 40.6011 -105.3483 259° West 422 486 34,000  Level FlightAware ADS-B (KEIK)
05:27PM 40.5850 -105.4565 259° West 426 490 34,000  Level FlightAware ADS-B (KEIK)
05:27PM 40.5731 -105.5380 259° West 425 489 34,000  Level FlightAware ADS-B (KEIK)
05:28PM 40.5614 -105.6157 259° West 426 490 34,000  Level FlightAware ADS-B (KEIK)
05:28PM 40.5474 -105.7079 259° West 434 499 34,000  Level FlightAware ADS-B (KEIK)
05:29PM 40.5346 -105.7921 259° West 420 483 34,000  Level FlightAware ADS-B (KEIK)
05:29PM 40.5207 -105.8839 259° West 432 497 34,000  Level FlightAware ADS-B (KEIK)
05:30PM 40.5014 -106.0093 258° West 414 476 34,000  Level FlightAware ADS-B
05:31PM 40.4891 -106.0882 259° West 413 475 34,000  Level FlightAware ADS-B (KEIK)
05:32PM 40.4708 -106.2069 259° West 413 475 34,000  Level FlightAware ADS-B (KANK)
05:32PM 40.4579 -106.2903 258° West 420 483 34,000  Level FlightAware ADS-B (KEIK)
05:33PM 40.4417 -106.3938 258° West 423 487 34,000  Level FlightAware ADS-B (KEIK)
05:33PM 40.4298 -106.4689 258° West 421 484 34,000  Level FlightAware ADS-B (KEIK)
05:34PM 40.4179 -106.5442 258° West 423 487 34,000  Level FlightAware ADS-B (KEIK)
05:35PM 40.3987 -106.6649 258° West 421 484 34,000  Level FlightAware ADS-B (KANK)
05:35PM 40.3865 -106.7394 258° West 424 488 34,000  Level FlightAware ADS-B (KEIK)
05:36PM 40.3731 -106.8229 258° West 429 494 34,000  Level FlightAware ADS-B (KEIK)
05:36PM 40.3605 -106.9016 258° West 433 498 34,000  Level FlightAware ADS-B (KEIK)
05:37PM 40.3387 -107.0353 258° West 431 496 34,000  Level FlightAware ADS-B (KANK)
05:38PM 40.3214 -107.1406 258° West 433 498 34,000  Level FlightAware ADS-B (KEIK)
05:38PM 40.3222 -107.1357 258° West 432 497 34,000  Level FlightAware ADS-B (KANK)
05:39PM 40.2914 -107.3215 258° West 431 496 34,000  Level FlightAware ADS-B
05:39PM 40.2790 -107.3964 258° West 423 487 34,000  Level FlightAware ADS-B
05:40PM 40.2643 -107.4838 258° West 419 482 34,000  Level FlightAware ADS-B
05:40PM 40.2524 -107.5553 258° West 421 484 34,000  Level FlightAware ADS-B
05:41PM 40.2381 -107.6410 257° West 423 487 34,000  Level FlightAware ADS-B
05:42PM 40.2255 -107.7148 258° West 420 483 34,000  Level FlightAware ADS-B
05:42PM 40.2098 -107.8073 258° West 419 482 34,000  Level FlightAware ADS-B
05:43PM 40.1883 -107.9312 257° West 422 486 34,000  Level FlightAware ADS-B
05:43PM 40.1757 -108.0048 257° West 424 488 34,000  Level FlightAware ADS-B
05:44PM 40.1612 -108.0884 257° West 425 489 34,000  Level FlightAware ADS-B
05:45PM 40.1480 -108.1627 257° West 428 493 34,000  Level FlightAware ADS-B
05:45PM 40.1365 -108.2376 262° West 427 491 34,000  Level FlightAware ADS-B
05:46PM 40.1275 -108.3204 262° West 428 493 34,000  Level FlightAware ADS-B (KMTJ)
05:46PM 40.1199 -108.4133 264° West 422 486 34,000  Level FlightAware ADS-B
05:47PM 40.1158 -108.4899 267° West 422 486 34,000  Level FlightAware ADS-B
05:47PM 40.1123 -108.5559 266° West 412 474 34,000  Level FlightAware ADS-B (KMTJ)
05:48PM 40.1077 -108.6402 266° West 409 471 34,000  Level FlightAware ADS-B
05:48PM 40.1069 -108.7330 274° West 410 472 34,000  Level FlightAware ADS-B
05:49PM 40.1118 -108.8123 275° West 409 471 34,000  Level FlightAware ADS-B (KMTJ)
05:49PM 40.1169 -108.8873 275° West 409 471 34,000  Level FlightAware ADS-B
05:50PM 40.1218 -108.9595 275° West 412 474 34,000  Level FlightAware ADS-B
05:50PM 40.1232 -108.9804 275° West 412 474 34,000  Level FlightAware ADS-B (KMTJ)
05:51PM 40.1285 -109.0633 275° West 415 478 34,000  Level FlightAware ADS-B
05:51PM 40.1348 -109.1448 276° West 419 482 34,000  Level FlightAware ADS-B
05:52PM 40.1419 -109.2379 274° West 425 489 34,000  Level FlightAware ADS-B
05:52PM 40.1436 -109.3262 263° West 420 483 34,000  Level FlightAware ADS-B
05:53PM 40.1360 -109.4046 263° West 422 486 34,000  Level FlightAware ADS-B
05:53PM 40.1299 -109.4714 263° West 424 488 34,000  Level FlightAware ADS-B
05:54PM 40.1222 -109.5319 258° West 421 484 34,000  Level FlightAware ADS-B
05:54PM 40.1040 -109.6406 258° West 419 482 34,000  Level FlightAware ADS-B
05:55PM 40.0900 -109.7241 258° West 425 489 34,000  Level FlightAware ADS-B
05:56PM 40.0756 -109.8055 254° West 424 488 34,000  Level FlightAware ADS-B
05:56PM 40.0566 -109.8782 250° West 419 482 34,000  Level FlightAware ADS-B
05:57PM 40.0319 -109.9673 250° West 418 481 34,000  Level FlightAware ADS-B
05:57PM 39.9994 -110.0854 250° West 418 481 34,000  Level FlightAware ADS-B
05:58PM 39.9770 -110.1664 250° West 420 483 34,000  Level FlightAware ADS-B
05:59PM 39.9458 -110.2799 250° West 416 479 34,000  Level FlightAware ADS-B (KMTJ)
05:59PM 39.9234 -110.3605 250° West 419 482 34,000  Level FlightAware ADS-B (KMTJ)
06:00PM 39.9062 -110.4223 254° West 415 478 34,000  Level FlightAware ADS-B (KMTJ)
06:00PM 39.9007 -110.4485 259° West 414 476 34,000  Level FlightAware ADS-B (KMTJ)
06:01PM 39.8881 -110.5450 261° West 415 478 34,000  Level FlightAware ADS-B
06:01PM 39.8791 -110.6185 261° West 418 481 34,000  Level FlightAware ADS-B
06:02PM 39.8696 -110.7016 261° West 413 475 34,000  Level FlightAware ADS-B
06:02PM 39.8586 -110.7920 261° West 416 479 34,000  Level FlightAware ADS-B
06:03PM 39.8459 -110.8883 259° West 413 475 34,000  Level FlightAware ADS-B
06:04PM 39.8341 -110.9630 258° West 414 476 34,000  Level FlightAware ADS-B
06:04PM 39.8180 -111.0461 256° West 417 480 34,000  Level FlightAware ADS-B
06:05PM 39.8030 -111.1143 251° West 412 474 34,000  Level FlightAware ADS-B
06:05PM 39.7819 -111.1853 245° Southwest 414 476 34,000  Level FlightAware ADS-B
06:06PM 39.7480 -111.2785 245° Southwest 415 478 34,000  Level FlightAware ADS-B
06:06PM 39.7155 -111.3698 246° West 413 475 34,000  Level FlightAware ADS-B
06:07PM 39.6911 -111.4386 245° Southwest 406 467 34,000  Level FlightAware ADS-B
06:08PM 39.6658 -111.5096 245° Southwest 413 475 34,000  Level FlightAware ADS-B
06:08PM 39.6532 -111.5452 245° Southwest 415 478 34,000  Level FlightAware ADS-B
06:09PM 39.6139 -111.6543 245° Southwest 417 480 34,000  Level FlightAware ADS-B
06:09PM 39.5904 -111.7191 245° Southwest 418 481 34,000  Level FlightAware ADS-B
06:10PM 39.5612 -111.7995 245° Southwest 417 480 34,000  Level FlightAware ADS-B
06:10PM 39.5366 -111.8679 245° Southwest 418 481 34,000  Level FlightAware ADS-B
06:11PM 39.5100 -111.9406 245° Southwest 424 488 34,000  Level FlightAware ADS-B
06:11PM 39.4842 -112.0110 245° Southwest 428 493 34,000  Level FlightAware ADS-B
06:11PM 39.4740 -112.0388 246° West 426 490 34,000  Level FlightAware ADS-B (KBTF)
06:12PM 39.4487 -112.1080 245° Southwest 429 494 34,000  Level FlightAware ADS-B
06:12PM 39.4390 -112.1346 245° Southwest 428 493 34,000  Level FlightAware ADS-B
06:12PM 39.4218 -112.1812 245° Southwest 427 491 34,000  Level FlightAware ADS-B
06:13PM 39.4068 -112.2221 245° Southwest 427 491 34,000  Level FlightAware ADS-B
06:13PM 39.3802 -112.2944 246° West 425 489 34,000  Level FlightAware ADS-B (KBTF)
06:14PM 39.3502 -112.3754 245° Southwest 426 490 34,000  Level FlightAware ADS-B
06:14PM 39.3243 -112.4478 247° West 422 486 34,000  Level FlightAware ADS-B
06:15PM 39.3045 -112.5187 254° West 417 480 34,000  Level FlightAware ADS-B
06:15PM 39.2913 -112.5965 261° West 421 484 34,000  Level FlightAware ADS-B
06:16PM 39.2856 -112.6496 264° West 422 486 34,000  Level FlightAware ADS-B (KBTF)
06:16PM 39.2801 -112.7025 263° West 422 486 34,000  Level FlightAware ADS-B (KBTF)
06:16PM 39.2772 -112.7300 264° West 422 486 34,000  Level FlightAware ADS-B (KBTF)
06:16PM 39.2749 -112.7515 262° West 422 486 34,000  Level FlightAware ADS-B
06:17PM 39.2657 -112.8362 262° West 422 486 34,000  Level FlightAware ADS-B
06:17PM 39.2623 -112.8669 260° West 424 488 34,000  Level FlightAware ADS-B
06:17PM 39.2611 -112.8745 257° West 425 489 34,000  Level FlightAware ADS-B
06:18PM 39.2439 -112.9455 254° West 425 489 34,000  Level FlightAware ADS-B (KBTF)
06:18PM 39.2328 -113.0226 263° West 424 488 34,000  Level FlightAware ADS-B
06:18PM 39.2304 -113.0504 265° West 424 488 34,000  Level FlightAware ADS-B (KBTF)
06:19PM 39.2265 -113.1002 266° West 427 491 34,000  Level FlightAware ADS-B (KBTF)
06:19PM 39.2198 -113.1849 264° West 425 489 34,000  Level FlightAware ADS-B
06:20PM 39.2119 -113.2590 256° West 422 486 34,000  Level FlightAware ADS-B
06:20PM 39.1936 -113.3299 251° West 417 480 34,000  Level FlightAware ADS-B
06:20PM 39.1909 -113.3399 252° West 413 475 34,000  Level FlightAware ADS-B (KBTF)
06:21PM 39.1705 -113.4166 251° West 410 472 34,000  Level FlightAware ADS-B
06:22PM 39.1383 -113.5390 251° West 415 478 34,000  Level FlightAware ADS-B
06:22PM 39.1140 -113.6312 251° West 419 482 34,000  Level FlightAware ADS-B
06:23PM 39.0906 -113.7208 251° West 420 483 34,000  Level FlightAware ADS-B
06:24PM 39.0656 -113.8147 251° West 421 484 34,000  Level FlightAware ADS-B
06:24PM 39.0444 -113.8933 251° West 417 480 34,000  Level FlightAware ADS-B
06:25PM 39.0261 -113.9617 251° West 418 481 34,000  Level FlightAware ADS-B
06:25PM 39.0074 -114.0327 253° West 419 482 34,000  Level FlightAware ADS-B
06:26PM 38.9920 -114.0983 253° West 421 484 34,000  Level FlightAware ADS-B
06:27PM 38.9542 -114.2575 253° West 423 487 34,000  Level Salt Lake Center
06:28PM 38.9272 -114.4031 257° West 423 487 34,000  Level Salt Lake Center
06:29PM 38.9058 -114.5486 259° West 421 484 34,000  Level Salt Lake Center
06:30PM 38.8844 -114.6936 259° West 419 482 34,000  Level Salt Lake Center
06:31PM 38.8622 -114.8428 259° West 424 488 34,000  Level Salt Lake Center
06:32PM 38.8347 -115.0219 259° West 425 489 34,000  Level Salt Lake Center
06:33PM 38.8142 -115.1692 260° West 425 489 34,000  Level Salt Lake Center
06:34PM 38.7906 -115.3167 258° West 424 488 34,000  Level Salt Lake Center
06:35PM 38.7706 -115.4539 259° West 429 494 34,000  Level Salt Lake Center
06:36PM 38.7439 -115.6319 259° West 429 494 34,000  Level Salt Lake Center
06:37PM 38.7283 -115.7836 263° West 429 494 34,000  Level Salt Lake Center
06:38PM 38.7186 -115.9392 265° West 434 499 34,000  Level Salt Lake Center
06:39PM 38.7083 -116.0944 265° West 435 501 34,000  Level Salt Lake Center
06:40PM 38.6975 -116.2514 265° West 438 504 34,000  Level Salt Lake Center
06:41PM 38.6856 -116.4428 265° West 443 510 34,000  Level Oakland Center
06:42PM 38.6750 -116.5997 265° West 444 511 34,000  Level Oakland Center
06:43PM 38.6631 -116.7539 264° West 444 511 34,000  Level Salt Lake Center
06:44PM 38.6522 -116.9108 265° West 445 512 34,000  Level Salt Lake Center
06:46PM 38.6408 -117.0708 265° West 446 513 34,000  Level Oakland Center
06:47PM 38.6294 -117.2261 265° West 445 512 34,000  Level Oakland Center
06:48PM 38.6147 -117.4153 264° West 450 518 34,000  Level Oakland Center
06:49PM 38.6022 -117.5750 264° West 453 521 34,000  Level Oakland Center
06:50PM 38.5894 -117.7347 264° West 454 522 34,000  Level Oakland Center
06:51PM 38.5767 -117.8942 264° West 454 522 34,000 -300 Level Oakland Center
06:52PM 38.5686 -118.0539 266° West 454 522 33,500 -720 Descending Oakland Center
06:53PM 38.5819 -118.2031 277° West 453 521 32,600 -1,740 Descending Oakland Center
06:58PM 38.6929 -119.0974 286° West 408 470 22,100 -1,800 Descending FlightAware ADS-B (KAHC)
06:59PM 38.7077 -119.1675 281° West 408 470 22,000 -120 Descending FlightAware ADS-B (KAHC)
06:59PM 38.7166 -119.2378 279° West 410 472 22,000  Level FlightAware ADS-B (KAHC)
07:02PM 38.7589 -119.5610 282° West 412 474 22,000 -180 Level FlightAware ADS-B (KAHC)
07:03PM 38.7722 -119.7408 282° West 411 473 21,500 -960 Descending Oakland Center
07:04PM 38.7767 -119.8922 272° West 415 478 19,700 -2,520 Descending Oakland Center
07:05PM 38.7803 -120.0681 272° West 410 472 16,400 -1,860 Descending Oakland Center
07:06PM 38.7800 -120.2133 270° West 410 472 15,900 -1,680 Descending Oakland Center
07:07PM 38.7644 -120.3567 262° West 409 471 13,000 -2,700 Descending Oakland Center
07:08PM 38.7503 -120.4906 262° West 389 448 10,400 -1,920 Descending Oakland Center
07:09PM 38.7400 -120.6008 263° West 319 367 9,100 -1,620 Descending Oakland Center
07:10PM 38.7286 -120.7014 262° West 293 337 7,200 -1,200 Descending Oakland Center
07:11PM 38.7289 -120.7964 270° West 271 312 6,700 -540 Descending Oakland Center
07:12PM 38.7392 -120.8797 279° West 246 283 6,200 -900 Descending Oakland Center
07:13PM 38.7411 -120.9703 272° West 226 260 4,900 -1,080 Descending Oakland Center
07:14PM 38.7072 -121.0272 233° Southwest 207 238 4,100 -960 Descending Oakland Center
07:15PM 38.6772 -121.0831 235° Southwest 197 227 3,000 -840 Descending Oakland Center
07:16PM 38.6447 -121.1386 233° Southwest 197 227 2,400 -660 Descending Oakland Center
07:17PM 38.6147 -121.1917 234° Southwest 192 221 1,700 -780 Descending Oakland Center
07:18PM 38.5914 -121.2381 237° Southwest 173 199 900 -780 Descending Oakland Center
07:19PM 38.5644 -121.2775 229° Southwest 151 174 200 3,000 Descending Oakland Center
07:20PM 38.5500 -121.3075 238° Southwest 111 128 7,000 3,300 Climbing Oakland Center
07:21PM 38.5572 -121.3122 333° Northwest 95 109 7,000  Level Oakland Center